createdAt,value
2018-07-07T00:00:24.920Z,99.90
2018-07-07T00:02:53.568Z,99.90
2018-07-07T00:05:22.205Z,99.90
2018-07-07T00:07:50.793Z,99.90
2018-07-07T00:10:19.416Z,99.90
2018-07-07T00:12:48.006Z,99.90
2018-07-07T00:15:19.153Z,99.90
2018-07-07T00:17:48.186Z,99.90
2018-07-07T00:20:17.340Z,99.90
2018-07-07T00:25:15.874Z,99.90
2018-07-07T00:30:13.707Z,99.90
2018-07-07T00:32:42.322Z,99.90
2018-07-07T00:35:10.957Z,99.90
2018-07-07T00:37:39.600Z,99.90
2018-07-07T00:40:09.121Z,99.90
2018-07-07T00:42:38.086Z,99.90
2018-07-07T00:45:06.800Z,99.90
2018-07-07T00:47:35.568Z,99.90
2018-07-07T00:50:04.605Z,99.90
2018-07-07T00:52:33.205Z,99.90
2018-07-07T00:55:01.839Z,99.90
2018-07-07T00:57:30.405Z,99.90
2018-07-07T00:59:59.089Z,99.90
2018-07-07T01:02:27.689Z,99.90
2018-07-07T01:04:56.289Z,99.90
2018-07-07T01:07:25.088Z,99.90
2018-07-07T01:09:53.665Z,99.90
2018-07-07T01:12:22.226Z,99.90
2018-07-07T01:14:50.898Z,99.90
2018-07-07T01:17:19.505Z,99.90
2018-07-07T01:19:48.131Z,99.90
2018-07-07T01:22:16.793Z,99.90
2018-07-07T01:24:45.381Z,99.90
2018-07-07T01:27:13.953Z,99.90
2018-07-07T01:29:42.788Z,99.90
2018-07-07T01:32:11.424Z,99.90
2018-07-07T01:34:40.396Z,99.90
2018-07-07T01:37:09.452Z,99.90
2018-07-07T01:39:38.042Z,99.90
2018-07-07T01:42:06.861Z,99.90
2018-07-07T01:47:03.904Z,99.90
2018-07-07T01:49:32.533Z,99.90
2018-07-07T01:52:01.097Z,99.90
2018-07-07T01:54:29.737Z,99.90
2018-07-07T01:56:58.313Z,99.90
2018-07-07T01:59:26.881Z,99.90
2018-07-07T02:01:55.516Z,99.90
2018-07-07T02:04:24.129Z,99.90
2018-07-07T02:06:52.697Z,99.90
2018-07-07T02:09:21.290Z,99.90
2018-07-07T02:11:49.853Z,99.90
2018-07-07T02:14:18.397Z,99.90
2018-07-07T02:16:46.990Z,99.90
2018-07-07T02:19:15.545Z,99.90
2018-07-07T02:21:44.121Z,99.90
2018-07-07T02:24:12.705Z,99.90
2018-07-07T02:26:41.281Z,99.90
2018-07-07T02:29:09.921Z,99.90
2018-07-07T02:31:38.468Z,99.90
2018-07-07T02:34:07.082Z,99.90
2018-07-07T02:36:35.729Z,99.90
2018-07-07T02:39:05.384Z,99.90
2018-07-07T02:41:34.377Z,99.90
2018-07-07T02:44:03.076Z,99.90
2018-07-07T02:46:31.641Z,99.90
2018-07-07T02:49:00.281Z,99.90
2018-07-07T02:51:28.877Z,99.90
2018-07-07T02:53:57.494Z,99.90
2018-07-07T02:56:26.369Z,99.90
2018-07-07T02:58:54.964Z,99.90
2018-07-07T03:01:23.619Z,99.90
2018-07-07T03:03:52.277Z,99.90
2018-07-07T03:06:20.864Z,99.90
2018-07-07T03:08:49.449Z,99.90
2018-07-07T03:11:18.005Z,99.90
2018-07-07T03:13:46.629Z,99.90
2018-07-07T03:16:15.669Z,99.90
2018-07-07T03:18:44.249Z,99.90
2018-07-07T03:21:12.873Z,99.90
2018-07-07T03:23:41.437Z,99.90
2018-07-07T03:26:10.045Z,99.90
2018-07-07T03:28:38.652Z,99.90
2018-07-07T03:31:07.321Z,99.90
2018-07-07T03:33:35.941Z,99.90
2018-07-07T03:36:04.601Z,99.90
2018-07-07T03:38:33.157Z,99.90
2018-07-07T03:41:01.752Z,99.90
2018-07-07T03:43:30.457Z,99.90
2018-07-07T03:45:59.016Z,99.90
2018-07-07T03:48:27.617Z,99.90
2018-07-07T03:50:56.217Z,99.90
2018-07-07T03:53:24.953Z,99.90
2018-07-07T03:55:53.546Z,99.90
2018-07-07T03:58:22.120Z,99.90
2018-07-07T04:00:50.769Z,99.90
2018-07-07T04:03:19.341Z,99.90
2018-07-07T04:05:47.961Z,99.90
2018-07-07T04:08:16.522Z,99.90
2018-07-07T04:10:45.072Z,99.90
2018-07-07T04:13:13.701Z,99.90
2018-07-07T04:15:42.285Z,99.90
2018-07-07T04:18:10.940Z,99.90
2018-07-07T04:20:39.614Z,99.90
2018-07-07T04:23:08.193Z,99.90
2018-07-07T04:25:36.752Z,99.90
2018-07-07T04:28:05.361Z,99.90
2018-07-07T04:30:33.960Z,99.90
2018-07-07T04:33:02.541Z,99.90
2018-07-07T04:35:31.116Z,99.90
2018-07-07T04:37:59.708Z,99.90
2018-07-07T04:40:28.276Z,99.90
2018-07-07T04:42:56.921Z,99.90
2018-07-07T04:45:25.533Z,99.90
2018-07-07T04:47:54.077Z,99.90
2018-07-07T04:50:22.703Z,99.90
2018-07-07T04:52:51.260Z,99.90
2018-07-07T04:55:19.855Z,99.90
2018-07-07T04:57:48.450Z,99.90
2018-07-07T05:00:17.018Z,99.90
2018-07-07T05:02:46.433Z,99.90
2018-07-07T05:05:15.270Z,99.90
2018-07-07T05:07:43.939Z,99.90
2018-07-07T05:10:12.581Z,99.90
2018-07-07T05:12:41.192Z,99.90
2018-07-07T05:15:09.909Z,99.90
2018-07-07T05:17:38.529Z,99.90
2018-07-07T05:20:07.434Z,99.90
2018-07-07T05:25:04.361Z,99.90
2018-07-07T05:27:32.953Z,99.90
2018-07-07T05:30:01.530Z,99.90
2018-07-07T05:32:30.165Z,99.90
2018-07-07T05:34:58.771Z,99.90
2018-07-07T05:37:27.454Z,99.90
2018-07-07T05:39:56.049Z,99.90
2018-07-07T05:42:24.629Z,99.90
2018-07-07T05:44:53.189Z,99.90
2018-07-07T05:47:21.833Z,99.90
2018-07-07T05:49:50.443Z,99.90
2018-07-07T05:52:19.023Z,99.90
2018-07-07T05:54:47.597Z,99.90
2018-07-07T05:57:16.251Z,99.90
2018-07-07T05:59:44.825Z,99.90
2018-07-07T06:02:13.537Z,99.90
2018-07-07T06:04:42.156Z,99.90
2018-07-07T06:07:10.761Z,99.90
2018-07-07T06:09:40.157Z,99.90
2018-07-07T06:12:08.788Z,99.90
2018-07-07T06:14:37.373Z,99.90
2018-07-07T06:19:34.226Z,99.90
2018-07-07T06:22:02.973Z,99.90
2018-07-07T06:24:31.540Z,99.90
2018-07-07T06:27:00.126Z,99.90
2018-07-07T06:29:28.700Z,99.90
2018-07-07T06:31:57.297Z,99.90
2018-07-07T06:34:25.909Z,99.90
2018-07-07T06:36:54.620Z,99.90
2018-07-07T06:39:23.201Z,99.90
2018-07-07T06:41:51.788Z,99.90
2018-07-07T06:44:20.373Z,99.90
2018-07-07T06:46:49.000Z,99.90
2018-07-07T06:49:17.553Z,99.90
2018-07-07T06:51:46.113Z,99.90
2018-07-07T06:54:14.760Z,99.90
2018-07-07T06:56:43.315Z,99.90
2018-07-07T06:59:11.885Z,99.90
2018-07-07T07:01:40.453Z,99.90
2018-07-07T07:04:09.084Z,99.90
2018-07-07T07:09:07.529Z,99.90
2018-07-07T07:11:36.197Z,99.90
2018-07-07T07:14:04.786Z,99.90
2018-07-07T07:16:33.417Z,99.90
2018-07-07T07:19:02.140Z,99.90
2018-07-07T07:21:30.710Z,99.90
2018-07-07T07:23:59.845Z,99.90
2018-07-07T07:26:28.518Z,99.90
2018-07-07T07:28:57.136Z,99.90
2018-07-07T07:31:25.741Z,99.90
2018-07-07T07:33:54.291Z,99.90
2018-07-07T07:36:40.644Z,99.90
2018-07-07T07:39:09.381Z,99.90
2018-07-07T07:41:38.014Z,99.90
2018-07-07T07:44:06.735Z,99.90
2018-07-07T07:46:35.305Z,99.90
2018-07-07T07:51:32.137Z,99.90
2018-07-07T07:54:00.749Z,99.90
2018-07-07T07:56:29.437Z,99.90
2018-07-07T07:58:58.871Z,99.90
2018-07-07T08:01:27.641Z,99.90
2018-07-07T08:03:57.110Z,99.90
2018-07-07T08:06:25.768Z,99.90
2018-07-07T08:08:54.321Z,99.90
2018-07-07T08:11:22.865Z,99.90
2018-07-07T08:13:51.620Z,99.90
2018-07-07T08:16:20.219Z,99.90
2018-07-07T08:18:48.906Z,99.90
2018-07-07T08:23:45.722Z,99.90
2018-07-07T08:26:14.283Z,99.90
2018-07-07T08:28:42.872Z,99.90
2018-07-07T08:31:11.451Z,99.90
2018-07-07T08:33:40.017Z,99.90
2018-07-07T08:36:08.665Z,99.90
2018-07-07T08:38:37.244Z,99.90
2018-07-07T08:41:05.921Z,99.90
2018-07-07T08:43:34.520Z,99.90
2018-07-07T08:46:03.087Z,99.90
2018-07-07T08:48:31.664Z,99.90
2018-07-07T08:51:00.253Z,99.90
2018-07-07T08:53:28.829Z,99.90
2018-07-07T08:55:57.389Z,99.90
2018-07-07T08:58:25.973Z,99.90
2018-07-07T09:00:54.556Z,99.90
2018-07-07T09:03:23.176Z,99.90
2018-07-07T09:05:51.797Z,99.90
2018-07-07T09:08:20.420Z,99.90
2018-07-07T09:10:49.032Z,99.90
2018-07-07T09:13:17.621Z,99.90
2018-07-07T09:15:46.237Z,99.90
2018-07-07T09:18:14.865Z,99.90
2018-07-07T09:20:43.470Z,99.90
2018-07-07T09:23:12.077Z,99.90
2018-07-07T09:25:40.756Z,99.90
2018-07-07T09:28:09.348Z,99.90
2018-07-07T09:30:37.912Z,99.90
2018-07-07T09:33:06.525Z,99.90
2018-07-07T09:35:35.165Z,99.90
2018-07-07T09:38:03.785Z,99.90
2018-07-07T09:40:32.333Z,99.90
2018-07-07T09:43:00.933Z,99.90
2018-07-07T09:45:29.506Z,99.90
2018-07-07T09:47:58.081Z,99.90
2018-07-07T09:50:26.855Z,99.90
2018-07-07T09:52:55.416Z,99.90
2018-07-07T09:55:23.973Z,99.90
2018-07-07T09:57:52.579Z,99.90
2018-07-07T10:00:26.339Z,99.90
2018-07-07T10:02:54.936Z,99.90
2018-07-07T10:05:23.527Z,99.90
2018-07-07T10:07:52.201Z,99.90
2018-07-07T10:10:20.786Z,99.90
2018-07-07T10:12:49.384Z,99.90
2018-07-07T10:15:17.950Z,99.90
2018-07-07T10:17:46.532Z,99.90
2018-07-07T10:20:15.096Z,99.90
2018-07-07T10:22:43.701Z,99.90
2018-07-07T10:25:12.301Z,99.90
2018-07-07T10:27:40.876Z,99.90
2018-07-07T10:30:09.778Z,99.90
2018-07-07T10:32:38.361Z,99.90
2018-07-07T10:35:07.236Z,99.60
2018-07-07T10:37:35.799Z,99.10
2018-07-07T10:40:04.445Z,99.00
2018-07-07T10:42:32.993Z,99.90
2018-07-07T10:45:01.550Z,99.40
2018-07-07T10:47:30.335Z,97.80
2018-07-07T10:49:58.801Z,97.70
2018-07-07T10:52:27.365Z,98.60
2018-07-07T10:54:55.985Z,99.10
2018-07-07T10:57:24.573Z,97.10
2018-07-07T10:59:53.185Z,96.00
2018-07-07T11:02:21.851Z,94.00
2018-07-07T11:04:50.468Z,94.90
2018-07-07T11:07:19.133Z,94.10
2018-07-07T11:09:47.898Z,93.40
2018-07-07T11:12:16.525Z,92.80
2018-07-07T11:14:45.100Z,92.90
2018-07-07T11:17:13.708Z,92.40
2018-07-07T11:19:42.330Z,92.20
2018-07-07T11:22:10.898Z,92.40
2018-07-07T11:24:40.459Z,88.90
2018-07-07T11:27:09.091Z,91.40
2018-07-07T11:29:37.676Z,90.40
2018-07-07T11:32:06.518Z,88.70
2018-07-07T11:34:35.144Z,89.80
2018-07-07T11:37:03.733Z,90.10
2018-07-07T11:39:32.401Z,90.10
2018-07-07T11:42:00.989Z,86.90
2018-07-07T11:44:29.537Z,88.30
2018-07-07T11:46:58.221Z,87.00
2018-07-07T11:49:26.841Z,84.50
2018-07-07T11:51:55.409Z,90.10
2018-07-07T11:54:24.010Z,88.10
2018-07-07T11:56:52.593Z,89.30
2018-07-07T11:59:21.141Z,89.70
2018-07-07T12:01:49.744Z,84.70
2018-07-07T12:04:18.433Z,86.40
2018-07-07T12:06:47.005Z,83.40
2018-07-07T12:09:15.673Z,88.80
2018-07-07T12:11:44.295Z,87.10
2018-07-07T12:14:12.913Z,85.10
2018-07-07T12:16:41.505Z,84.50
2018-07-07T12:19:10.135Z,85.80
2018-07-07T12:21:38.705Z,87.90
2018-07-07T12:24:07.415Z,83.20
2018-07-07T12:26:36.029Z,82.70
2018-07-07T12:29:04.597Z,81.20
2018-07-07T12:31:33.209Z,81.00
2018-07-07T12:34:01.818Z,84.00
2018-07-07T12:36:30.389Z,82.70
2018-07-07T12:38:58.977Z,78.60
2018-07-07T12:41:27.548Z,79.10
2018-07-07T12:43:56.101Z,77.90
2018-07-07T12:46:24.702Z,78.10
2018-07-07T12:48:53.297Z,81.20
2018-07-07T12:51:21.851Z,84.50
2018-07-07T12:53:50.525Z,81.70
2018-07-07T12:56:19.091Z,82.30
2018-07-07T12:58:47.772Z,80.20
2018-07-07T13:01:16.452Z,79.60
2018-07-07T13:03:45.014Z,77.60
2018-07-07T13:06:13.665Z,79.80
2018-07-07T13:08:42.324Z,78.50
2018-07-07T13:11:10.949Z,75.90
2018-07-07T13:13:39.554Z,78.40
2018-07-07T13:16:08.312Z,74.10
2018-07-07T13:18:36.905Z,74.50
2018-07-07T13:21:05.597Z,73.60
2018-07-07T13:23:34.233Z,73.00
2018-07-07T13:26:02.841Z,74.90
2018-07-07T13:28:31.431Z,73.70
2018-07-07T13:31:00.043Z,72.90
2018-07-07T13:33:28.674Z,73.20
2018-07-07T13:35:57.212Z,76.10
2018-07-07T13:38:25.850Z,73.90
2018-07-07T13:40:54.440Z,74.40
2018-07-07T13:43:23.003Z,73.70
2018-07-07T13:45:51.661Z,68.20
2018-07-07T13:48:20.273Z,69.30
2018-07-07T13:50:48.857Z,75.40
2018-07-07T13:53:17.453Z,70.60
2018-07-07T13:55:46.032Z,70.30
2018-07-07T13:58:14.588Z,73.10
2018-07-07T14:00:43.188Z,70.20
2018-07-07T14:03:11.798Z,66.70
2018-07-07T14:05:40.374Z,68.80
2018-07-07T14:08:08.977Z,70.30
2018-07-07T14:10:37.584Z,73.90
2018-07-07T14:13:06.200Z,70.10
2018-07-07T14:15:34.791Z,69.40
2018-07-07T14:18:03.361Z,70.40
2018-07-07T14:20:31.981Z,68.90
2018-07-07T14:23:00.585Z,70.40
2018-07-07T14:25:29.205Z,71.00
2018-07-07T14:27:57.778Z,68.90
2018-07-07T14:30:26.428Z,65.10
2018-07-07T14:32:55.652Z,68.30
2018-07-07T14:37:52.481Z,67.90
2018-07-07T14:40:21.103Z,66.00
2018-07-07T14:42:50.776Z,64.70
2018-07-07T14:45:21.272Z,69.40
2018-07-07T14:47:50.921Z,66.00
2018-07-07T14:50:19.733Z,69.00
2018-07-07T14:52:48.557Z,65.60
2018-07-07T14:55:18.581Z,66.00
2018-07-07T14:57:47.474Z,68.00
2018-07-07T15:00:21.202Z,68.90
2018-07-07T15:02:50.929Z,66.30
2018-07-07T15:05:19.532Z,68.10
2018-07-07T15:07:48.829Z,69.10
2018-07-07T15:10:17.612Z,66.50
2018-07-07T15:12:46.925Z,67.90
2018-07-07T15:15:15.890Z,65.50
2018-07-07T15:17:45.337Z,69.10
2018-07-07T15:20:13.994Z,66.80
2018-07-07T15:22:42.708Z,70.00
2018-07-07T15:25:11.229Z,65.70
2018-07-07T15:27:39.815Z,66.00
2018-07-07T15:30:09.380Z,66.80
2018-07-07T15:32:38.877Z,66.70
2018-07-07T15:35:07.453Z,66.30
2018-07-07T15:37:36.426Z,68.90
2018-07-07T15:40:05.486Z,71.40
2018-07-07T15:42:34.055Z,67.60
2018-07-07T15:45:02.701Z,67.00
2018-07-07T15:47:31.317Z,68.80
2018-07-07T15:49:59.889Z,70.60
2018-07-07T15:52:28.492Z,67.90
2018-07-07T15:54:57.077Z,69.00
2018-07-07T15:57:25.656Z,67.60
2018-07-07T15:59:54.328Z,70.60
2018-07-07T16:02:22.934Z,71.00
2018-07-07T16:04:51.565Z,70.20
2018-07-07T16:07:20.165Z,68.90
2018-07-07T16:09:48.774Z,71.90
2018-07-07T16:12:17.384Z,71.20
2018-07-07T16:14:45.988Z,70.40
2018-07-07T16:17:14.585Z,68.80
2018-07-07T16:19:43.270Z,67.90
2018-07-07T16:22:11.837Z,69.00
2018-07-07T16:24:40.420Z,69.50
2018-07-07T16:27:09.009Z,71.00
2018-07-07T16:29:38.581Z,72.40
2018-07-07T16:32:07.525Z,72.40
2018-07-07T16:34:36.248Z,70.50
2018-07-07T16:37:05.084Z,71.90
2018-07-07T16:39:34.146Z,73.60
2018-07-07T16:42:02.765Z,70.40
2018-07-07T16:44:31.690Z,71.60
2018-07-07T16:47:01.790Z,72.70
2018-07-07T16:49:30.490Z,72.90
2018-07-07T16:52:00.749Z,74.50
2018-07-07T16:54:29.696Z,72.20
2018-07-07T16:56:58.796Z,70.60
2018-07-07T16:59:28.525Z,72.10
2018-07-07T17:01:57.668Z,72.10
2018-07-07T17:04:26.353Z,73.20
2018-07-07T17:06:55.014Z,73.50
2018-07-07T17:09:23.727Z,74.80
2018-07-07T17:11:53.056Z,77.70
2018-07-07T17:14:22.877Z,75.00
2018-07-07T17:16:51.946Z,78.10
2018-07-07T17:19:20.681Z,78.60
2018-07-07T17:21:49.350Z,76.80
2018-07-07T17:24:18.022Z,77.30
2018-07-07T17:26:47.761Z,80.20
2018-07-07T17:29:16.469Z,78.20
2018-07-07T17:31:45.629Z,80.90
2018-07-07T17:34:14.650Z,81.80
2018-07-07T17:36:43.573Z,80.30
2018-07-07T17:39:12.292Z,82.00
2018-07-07T17:41:41.247Z,80.70
2018-07-07T17:44:09.836Z,81.60
2018-07-07T17:46:38.825Z,80.70
2018-07-07T17:49:07.478Z,81.60
2018-07-07T17:51:36.221Z,82.50
2018-07-07T17:54:04.805Z,81.10
2018-07-07T17:56:36.049Z,81.80
2018-07-07T17:59:04.645Z,80.40
2018-07-07T18:01:34.911Z,80.70
2018-07-07T18:04:04.772Z,91.00
2018-07-07T18:06:47.085Z,88.30
2018-07-07T18:09:15.719Z,92.30
2018-07-07T18:11:44.429Z,92.80
2018-07-07T18:14:12.869Z,94.40
2018-07-07T18:16:41.526Z,87.50
2018-07-07T18:19:10.082Z,88.50
2018-07-07T18:21:38.641Z,94.60
2018-07-07T18:24:07.239Z,92.60
2018-07-07T18:26:35.815Z,93.50
2018-07-07T18:29:04.458Z,89.70
2018-07-07T18:31:33.080Z,90.70
2018-07-07T18:34:01.672Z,91.30
2018-07-07T18:36:30.937Z,90.80
2018-07-07T18:38:59.541Z,89.10
2018-07-07T18:41:28.159Z,93.20
2018-07-07T18:43:56.725Z,92.10
2018-07-07T18:46:25.364Z,92.60
2018-07-07T18:48:54.546Z,92.10
2018-07-07T18:51:23.114Z,91.50
2018-07-07T18:53:51.712Z,92.30
2018-07-07T18:56:20.414Z,91.50
2018-07-07T18:58:48.949Z,91.50
2018-07-07T19:01:17.549Z,89.70
2018-07-07T19:03:46.213Z,92.20
2018-07-07T19:06:14.785Z,91.00
2018-07-07T19:08:43.437Z,90.20
2018-07-07T19:11:12.333Z,92.00
2018-07-07T19:13:40.941Z,91.30
2018-07-07T19:16:09.527Z,91.60
2018-07-07T19:18:38.112Z,92.50
2018-07-07T19:21:11.953Z,92.80
2018-07-07T19:23:45.798Z,91.80
2018-07-07T19:26:19.787Z,92.70
2018-07-07T19:28:48.310Z,92.10
2018-07-07T19:31:16.889Z,94.20
2018-07-07T19:33:50.840Z,93.70
2018-07-07T19:36:24.720Z,92.60
2018-07-07T19:38:53.352Z,93.00
2018-07-07T19:41:21.945Z,93.30
2018-07-07T19:43:50.529Z,93.40
2018-07-07T19:46:19.208Z,93.70
2018-07-07T19:48:47.753Z,95.00
2018-07-07T19:51:16.357Z,92.90
2018-07-07T19:53:45.395Z,95.00
2018-07-07T19:56:13.817Z,96.60
2018-07-07T19:58:42.418Z,95.10
2018-07-07T20:01:11.137Z,93.20
2018-07-07T20:03:39.756Z,94.10
2018-07-07T20:06:08.360Z,95.30
2018-07-07T20:08:36.966Z,94.70
2018-07-07T20:11:05.564Z,95.70
2018-07-07T20:13:34.149Z,96.30
2018-07-07T20:16:12.212Z,96.10
2018-07-07T20:18:57.262Z,96.90
2018-07-07T20:21:42.392Z,97.90
2018-07-07T20:24:10.988Z,99.10
2018-07-07T20:26:43.801Z,99.70
2018-07-07T20:29:12.432Z,98.60
2018-07-07T20:31:46.277Z,98.60
2018-07-07T20:34:14.861Z,99.90
2018-07-07T20:36:43.464Z,99.90
2018-07-07T20:39:12.081Z,99.90
2018-07-07T20:41:40.659Z,99.90
2018-07-07T20:44:09.248Z,99.90
2018-07-07T20:46:37.899Z,99.90
2018-07-07T20:49:06.851Z,99.90
2018-07-07T20:51:36.577Z,99.90
2018-07-07T20:54:05.277Z,99.90
2018-07-07T20:56:33.861Z,99.90
2018-07-07T20:59:02.537Z,99.90
2018-07-07T21:01:31.309Z,99.90
2018-07-07T21:04:00.373Z,99.90
2018-07-07T21:06:30.010Z,99.90
2018-07-07T21:08:58.605Z,99.90
2018-07-07T21:11:27.609Z,99.90
2018-07-07T21:13:56.264Z,99.90
2018-07-07T21:16:24.901Z,99.90
2018-07-07T21:18:54.001Z,99.90
2018-07-07T21:21:22.745Z,99.90
2018-07-07T21:23:51.442Z,99.90
2018-07-07T21:26:20.332Z,99.90
2018-07-07T21:28:48.991Z,99.90
2018-07-07T21:31:17.645Z,99.90
2018-07-07T21:33:46.236Z,99.90
2018-07-07T21:36:14.908Z,99.90
2018-07-07T21:38:43.589Z,99.90
2018-07-07T21:41:12.197Z,99.90
2018-07-07T21:43:40.824Z,99.90
2018-07-07T21:46:09.409Z,99.90
2018-07-07T21:48:38.533Z,99.90
2018-07-07T21:51:07.477Z,99.90
2018-07-07T21:53:36.090Z,99.90
2018-07-07T21:56:04.811Z,99.90
2018-07-07T21:58:33.389Z,99.90
2018-07-07T22:02:22.393Z,99.90
2018-07-07T22:08:28.298Z,99.90
2018-07-07T22:10:56.889Z,99.90
2018-07-07T22:13:25.461Z,99.90
2018-07-07T22:15:54.101Z,99.90
2018-07-07T22:18:22.729Z,99.90
2018-07-07T22:21:02.711Z,99.90
2018-07-07T22:23:31.300Z,99.90
2018-07-07T22:25:59.885Z,99.90
2018-07-07T22:28:28.481Z,99.90
2018-07-07T22:30:57.118Z,99.90
2018-07-07T22:33:26.836Z,99.90
2018-07-07T22:36:00.820Z,99.90
2018-07-07T22:38:34.725Z,99.90
2018-07-07T22:41:03.472Z,99.90
2018-07-07T22:43:32.089Z,99.90
2018-07-07T22:46:01.172Z,99.90
2018-07-07T22:48:30.109Z,99.90
2018-07-07T22:50:58.729Z,99.90
2018-07-07T22:53:27.328Z,99.90
2018-07-07T22:55:55.933Z,99.90
2018-07-07T22:58:24.541Z,99.90
2018-07-07T23:00:53.172Z,99.90
2018-07-07T23:03:21.789Z,99.90
2018-07-07T23:05:50.377Z,99.90
2018-07-07T23:08:18.965Z,99.90
2018-07-07T23:10:47.653Z,99.90
2018-07-07T23:13:16.250Z,99.90
2018-07-07T23:15:44.854Z,99.90
2018-07-07T23:18:13.421Z,99.90
2018-07-07T23:20:41.993Z,99.90
2018-07-07T23:23:10.548Z,99.90
2018-07-07T23:25:39.153Z,99.90
2018-07-07T23:28:07.748Z,99.90
2018-07-07T23:30:36.341Z,99.90
2018-07-07T23:33:04.957Z,99.90
2018-07-07T23:35:33.595Z,99.90
2018-07-07T23:38:02.178Z,99.90
2018-07-07T23:40:30.758Z,99.90
2018-07-07T23:42:59.325Z,99.90
2018-07-07T23:45:27.909Z,99.90
2018-07-07T23:47:56.629Z,99.90
2018-07-07T23:50:25.217Z,99.90
2018-07-07T23:52:53.893Z,99.90
2018-07-07T23:55:22.496Z,99.90
2018-07-07T23:57:51.096Z,99.90
